KLNR/LNR METAR and TAF weather

Enter ICAO airport designator
Station Type Date Time Source
KLNR METAR 2024/02/26 16:56 UTC NOAA

KLNR 261656Z AUTO 13013KT 10SM CLR 12/M01 A2969 RMK AO2 SLP051 T01171011


Station Type Date Time Source
KLNR Decoded METAR 2024/02/26 16:56 UTC NOAA

LONE ROCK TRI-COUNTY REG, WI, United States (KLNR) 43-13N 090-11W 217M
Feb 26, 2024 - 11:56 AM EST / 2024.02.26 1656 UTC
Wind: from the SE (130 degrees) at 15 MPH (13 KT):0
Visibility: 10 mile(s):0
Sky conditions: clear
Temperature: 53.1 F (11.7 C)
Dew Point: 30.0 F (-1.1 C)
Relative Humidity: 41%
Pressure (altimeter): 29.69 in. Hg (1005 hPa)
ob: KLNR 261656Z AUTO 13013KT 10SM CLR 12/M01 A2969 RMK AO2 SLP051 T01171011
cycle: 17

Station Type Date Time Source
KLNR TAF UTC NOAA

Error!

Example: see airport list